Terminal Aerodrome Forecast
Issued by NWS

Home | Current Version | Previous Version | Text Only | Print | Product List | Glossary On
Versions: 1 2 3 4 5 6 7 8 9 10 11 12
000
FTUS43 KABR 172328
TAFPIR
TAF
KPIR 172328Z 1800/1824 18005KT P6SM SKC
     FM180500 24005KT P6SM FEW150
     FM182100 15004KT P6SM SKC=

USA.gov is the U.S. government's official web portal to all federal, state and local government web resources and services.